Time;durP1;ratioP1;P1;durP2;ratioP2;P2;SDS_P1;SDS_P2;PMS_P1;PMS_P2;Temp;Humidity;BMP_temperature;BMP_pressure;BME280_temperature;BME280_humidity;BME280_pressure;Samples;Min_cycle;Max_cycle;Signal;HPM_P1;HPM_P2
2020/12/20 00:02:21;;;;;;;19.50;13.43;;;;;;;7.08;69.33;103007.17;1701551;84;21665;-46
2020/12/20 00:04:50;;;;;;;18.20;13.48;;;;;;;7.07;69.14;103009.28;1772412;80;21148;-46
2020/12/20 00:07:20;;;;;;;15.95;12.47;;;;;;;7.05;69.17;103005.36;1771080;80;21117;-46
2020/12/20 00:09:49;;;;;;;18.25;12.28;;;;;;;7.03;69.16;103010.03;1769547;80;21152;-46
2020/12/20 00:12:17;;;;;;;14.75;11.43;;;;;;;7.01;69.25;103005.23;1769063;80;21576;-46
2020/12/20 00:14:46;;;;;;;15.03;12.00;;;;;;;6.99;69.10;103005.60;1768623;80;21168;-46
2020/12/20 00:17:14;;;;;;;18.23;12.55;;;;;;;6.96;69.14;103005.53;1768701;80;21581;-46
2020/12/20 00:19:43;;;;;;;17.77;13.18;;;;;;;6.95;69.14;103007.64;1763827;80;21129;-46
2020/12/20 00:22:13;;;;;;;14.03;11.15;;;;;;;6.96;69.18;103014.59;1769057;80;21169;-47
2020/12/20 00:24:42;;;;;;;15.13;11.65;;;;;;;6.97;69.31;103015.03;1768238;80;21152;-46
2020/12/20 00:27:13;;;;;;;15.30;11.93;;;;;;;6.97;69.17;103011.16;1762979;80;21148;-46
2020/12/20 00:29:43;;;;;;;14.55;11.63;;;;;;;6.97;69.01;103009.86;1764850;80;21581;-46
2020/12/20 00:32:11;;;;;;;16.67;12.05;;;;;;;6.96;69.02;103009.42;1771801;80;21121;-47
2020/12/20 00:34:40;;;;;;;18.17;12.75;;;;;;;6.93;68.84;103009.31;1771806;80;21192;-47
2020/12/20 00:37:08;;;;;;;14.23;11.75;;;;;;;6.89;68.97;103016.53;1769879;80;21935;-47
2020/12/20 00:39:36;;;;;;;16.30;11.28;;;;;;;6.90;69.11;103015.30;1769944;80;21148;-47
2020/12/20 00:42:06;;;;;;;15.93;12.65;;;;;;;6.93;69.09;103022.25;1771184;80;21168;-47
2020/12/20 00:44:35;;;;;;;15.58;12.93;;;;;;;6.95;69.07;103020.59;1772125;80;21161;-46
2020/12/20 00:47:04;;;;;;;16.15;12.40;;;;;;;6.99;68.85;103013.37;1771776;80;21129;-47
2020/12/20 00:49:33;;;;;;;16.70;13.08;;;;;;;7.00;68.73;103020.31;1752392;80;21121;-47
2020/12/20 00:52:05;;;;;;;16.00;11.85;;;;;;;7.00;68.67;103019.02;1767219;80;21184;-47
2020/12/20 00:54:33;;;;;;;18.25;13.18;;;;;;;7.00;68.83;103024.20;1725432;82;21190;-47
2020/12/20 00:57:03;;;;;;;15.50;12.35;;;;;;;7.02;68.80;103025.12;1735119;82;21155;-47
2020/12/20 00:59:32;;;;;;;17.80;13.72;;;;;;;7.04;68.74;103020.86;1734830;82;21626;-47
2020/12/20 01:02:00;;;;;;;15.68;12.93;;;;;;;7.07;68.57;103022.23;1731426;82;21356;-47
2020/12/20 01:04:29;;;;;;;17.10;13.60;;;;;;;7.06;68.45;103023.08;1722479;82;21218;-47
2020/12/20 01:07:01;;;;;;;18.40;14.05;;;;;;;7.04;68.53;103029.92;1729270;82;21224;-47
2020/12/20 01:09:32;;;;;;;17.40;12.95;;;;;;;6.78;69.16;103034.77;1729292;82;21606;-47
2020/12/20 01:12:01;;;;;;;15.25;12.85;;;;;;;6.67;69.52;103041.31;1727687;82;21218;-47
2020/12/20 01:14:39;;;;;;;16.87;12.73;;;;;;;6.65;69.71;103034.81;1810504;79;23039;-47
2020/12/20 01:17:07;;;;;;;18.32;13.40;;;;;;;6.58;69.85;103040.20;1778473;80;21147;-47
2020/12/20 01:19:38;;;;;;;19.98;14.85;;;;;;;6.58;69.95;103032.85;1774741;80;21120;-46
2020/12/20 01:22:06;;;;;;;16.30;12.15;;;;;;;6.59;69.95;103038.06;1776071;80;21171;-46
2020/12/20 01:24:35;;;;;;;16.95;12.53;;;;;;;6.62;69.94;103039.87;1769750;80;21156;-46
2020/12/20 01:27:06;;;;;;;17.70;12.58;;;;;;;6.61;69.88;103037.25;1780187;80;21144;-46
2020/12/20 01:29:36;;;;;;;16.32;12.70;;;;;;;6.58;69.76;103044.08;1777699;80;21600;-46
2020/12/20 01:32:05;;;;;;;18.17;13.72;;;;;;;6.55;69.83;103036.66;1776197;80;21164;-46
2020/12/20 01:34:34;;;;;;;18.15;14.07;;;;;;;6.58;69.68;103037.62;1778481;80;21592;-47
2020/12/20 01:37:03;;;;;;;15.88;12.95;;;;;;;6.53;69.95;103039.17;1779319;80;21132;-46
2020/12/20 01:39:32;;;;;;;16.17;12.85;;;;;;;6.62;69.58;103042.87;1772432;80;21155;-46
2020/12/20 01:42:01;;;;;;;16.10;13.03;;;;;;;6.66;69.38;103047.34;1774160;80;21159;-47
2020/12/20 01:44:31;;;;;;;18.65;13.28;;;;;;;6.68;69.32;103044.38;1778897;80;21156;-46
2020/12/20 01:46:59;;;;;;;18.30;14.28;;;;;;;6.73;69.11;103038.91;1771526;80;21310;-46
2020/12/20 01:49:29;;;;;;;17.65;13.10;;;;;;;6.62;69.46;103041.57;1777614;80;21163;-46
2020/12/20 01:51:57;;;;;;;15.80;12.53;;;;;;;6.64;69.46;103037.33;1778089;80;21152;-47
2020/12/20 01:54:25;;;;;;;15.05;12.53;;;;;;;6.58;69.71;103047.97;1776671;80;21298;-46
2020/12/20 01:57:03;;;;;;;17.52;13.08;;;;;;;6.88;68.78;103041.96;1807678;79;22222;-47
2020/12/20 01:59:36;;;;;;;17.32;13.78;;;;;;;6.85;68.74;103043.16;1718365;82;21192;-46
2020/12/20 02:02:12;;;;;;;20.12;12.80;;;;;;;6.94;68.67;103043.44;1810850;79;22587;-46
2020/12/20 02:04:42;;;;;;;17.57;13.35;;;;;;;6.92;68.66;103049.87;1762076;80;21183;-46
2020/12/20 02:07:12;;;;;;;15.03;11.83;;;;;;;6.98;68.60;103049.16;1775870;80;21649;-46
2020/12/20 02:09:40;;;;;;;17.87;12.60;;;;;;;7.03;68.39;103048.45;1780182;80;21171;-46
2020/12/20 02:12:09;;;;;;;16.82;12.23;;;;;;;7.05;68.22;103049.38;1764122;80;21215;-47
2020/12/20 02:14:39;;;;;;;15.13;12.28;;;;;;;6.99;68.46;103049.20;1777970;80;21608;-46
2020/12/20 02:17:08;;;;;;;20.88;13.78;;;;;;;6.97;68.33;103052.56;1779216;80;21143;-46
2020/12/20 02:19:38;;;;;;;18.05;13.80;;;;;;;6.91;68.34;103060.16;1774079;80;21144;-46
2020/12/20 02:22:18;;;;;;;16.87;12.88;;;;;;;6.92;68.53;103054.16;1771680;79;22954;-46
2020/12/20 02:24:48;;;;;;;17.48;13.20;;;;;;;6.90;68.50;103053.23;1744683;82;21584;-46
2020/12/20 02:27:18;;;;;;;15.95;12.37;;;;;;;6.87;68.59;103053.13;1729426;82;21136;-46
2020/12/20 02:29:48;;;;;;;16.23;12.70;;;;;;;6.85;68.67;103055.69;1735571;82;21140;-46
2020/12/20 02:32:17;;;;;;;18.35;13.75;;;;;;;6.82;68.54;103052.13;1738088;81;21128;-47
2020/12/20 02:34:45;;;;;;;17.20;14.75;;;;;;;6.80;68.58;103061.56;1737839;82;21564;-47
2020/12/20 02:37:13;;;;;;;16.45;12.55;;;;;;;6.76;68.71;103059.72;1740086;82;21169;-47
2020/12/20 02:39:43;;;;;;;16.87;13.75;;;;;;;6.78;68.89;103061.94;1736866;82;21164;-47
2020/12/20 02:42:12;;;;;;;16.17;12.90;;;;;;;6.80;68.84;103063.70;1741177;82;21148;-47
2020/12/20 02:44:41;;;;;;;18.17;12.73;;;;;;;6.82;68.77;103067.66;1739303;82;21634;-47
2020/12/20 02:47:10;;;;;;;17.98;13.38;;;;;;;6.81;68.71;103065.48;1739171;82;21172;-46
2020/12/20 02:49:39;;;;;;;18.77;14.70;;;;;;;6.80;68.66;103066.73;1708586;82;21137;-47
2020/12/20 02:52:09;;;;;;;16.62;13.48;;;;;;;6.79;68.83;103061.08;1740605;82;21165;-47
2020/12/20 02:54:38;;;;;;;17.62;13.60;;;;;;;6.75;68.71;103064.00;1738049;82;21576;-47
2020/12/20 02:57:08;;;;;;;20.30;14.68;;;;;;;6.74;68.84;103060.94;1728988;82;21224;-47
2020/12/20 02:59:50;;;;;;;20.75;14.68;;;;;;;6.79;68.93;103061.97;1812747;79;22873;-47
2020/12/20 03:02:20;;;;;;;19.80;14.53;;;;;;;6.75;68.92;103058.83;1780166;80;21112;-47
2020/12/20 03:04:50;;;;;;;18.45;14.87;;;;;;;6.76;68.90;103061.01;1780203;80;21983;-47
2020/12/20 03:07:20;;;;;;;17.57;14.87;;;;;;;6.74;68.97;103060.09;1778890;80;21183;-47
2020/12/20 03:09:50;;;;;;;18.35;13.90;;;;;;;6.72;69.19;103063.05;1776948;80;21175;-46
2020/12/20 03:12:22;;;;;;;17.37;13.20;;;;;;;6.74;69.26;103069.14;1779097;80;21176;-47
2020/12/20 03:14:50;;;;;;;17.10;14.05;;;;;;;6.77;69.08;103069.22;1777060;80;21286;-46
2020/12/20 03:17:19;;;;;;;19.60;14.87;;;;;;;6.76;68.97;103074.80;1776861;80;21116;-47
2020/12/20 03:19:48;;;;;;;17.30;14.50;;;;;;;6.76;68.92;103077.83;1770917;80;21604;-47
2020/12/20 03:22:18;;;;;;;18.75;13.55;;;;;;;6.75;69.03;103069.59;1779038;80;21171;-47
2020/12/20 03:25:08;;;;;;;17.35;13.90;;;;;;;6.79;69.06;103068.44;1770251;79;23139;-46
2020/12/20 03:27:39;;;;;;;17.12;13.60;;;;;;;6.75;68.89;103067.00;1699284;83;21176;-47
2020/12/20 03:30:15;;;;;;;22.20;15.03;;;;;;;6.78;68.86;103065.81;1771233;79;22946;-46
2020/12/20 03:32:48;;;;;;;17.85;14.38;;;;;;;6.72;68.74;103068.22;1734312;82;21648;-47
2020/12/20 03:35:18;;;;;;;16.67;13.78;;;;;;;6.72;68.72;103066.92;1733398;82;21192;-47
2020/12/20 03:37:51;;;;;;;19.07;14.15;;;;;;;6.72;68.72;103068.22;1735988;82;21160;-46
2020/12/20 03:40:22;;;;;;;20.27;14.25;;;;;;;6.71;68.67;103069.03;1736831;82;21168;-47
2020/12/20 03:42:50;;;;;;;18.25;14.93;;;;;;;6.71;68.59;103066.45;1742241;82;21144;-47
2020/12/20 03:45:19;;;;;;;16.90;13.55;;;;;;;6.72;68.42;103073.39;1732010;82;21156;-46
2020/12/20 03:47:47;;;;;;;18.57;14.80;;;;;;;6.72;68.33;103070.80;1739284;82;21565;-46
2020/12/20 03:50:18;;;;;;;21.62;15.78;;;;;;;6.69;68.35;103073.28;1733132;82;21180;-47
2020/12/20 03:52:48;;;;;;;17.80;14.03;;;;;;;6.66;68.30;103070.62;1741434;82;21584;-46
2020/12/20 03:55:26;;;;;;;20.25;15.03;;;;;;;6.66;68.31;103071.47;1807546;79;22243;-46
2020/12/20 03:57:56;;;;;;;20.85;14.78;;;;;;;6.57;68.40;103073.35;1766267;80;21163;-46
2020/12/20 04:00:25;;;;;;;19.42;15.20;;;;;;;6.52;68.44;103073.64;1772016;80;21740;-47
2020/12/20 04:02:55;;;;;;;20.23;14.38;;;;;;;6.50;68.62;103076.59;1775268;80;21147;-47
2020/12/20 04:05:24;;;;;;;19.00;14.20;;;;;;;6.48;68.58;103081.25;1772833;80;21537;-46
2020/12/20 04:07:53;;;;;;;19.12;14.38;;;;;;;6.45;68.60;103084.61;1783361;80;21175;-46
2020/12/20 04:10:22;;;;;;;21.12;14.63;;;;;;;6.44;68.71;103088.05;1769773;80;21129;-46
2020/12/20 04:12:51;;;;;;;18.23;13.90;;;;;;;6.42;68.59;103079.36;1772969;80;21294;-47
2020/12/20 04:15:19;;;;;;;20.23;14.73;;;;;;;6.41;68.68;103081.47;1749566;80;21202;-46
2020/12/20 04:17:47;;;;;;;21.23;14.53;;;;;;;6.41;68.60;103086.64;1772784;80;21160;-46
2020/12/20 04:20:15;;;;;;;19.45;14.95;;;;;;;6.37;68.58;103095.13;1774140;80;21269;-46
2020/12/20 04:22:53;;;;;;;19.82;14.40;;;;;;;6.41;68.80;103094.80;1811523;79;22993;-46
2020/12/20 04:25:30;;;;;;;20.75;14.63;;;;;;;6.36;68.91;103093.80;1784007;80;21148;-46
2020/12/20 04:28:16;;;;;;;18.15;13.78;;;;;;;6.40;68.98;103103.00;1817825;79;23351;-46
2020/12/20 04:30:46;;;;;;;20.90;14.78;;;;;;;6.35;68.82;103104.95;1782151;80;21568;-46
2020/12/20 04:33:16;;;;;;;20.77;15.75;;;;;;;6.31;68.79;103109.15;1767534;80;21201;-46
2020/12/20 04:35:46;;;;;;;21.87;15.03;;;;;;;6.29;68.85;103115.98;1791216;80;21144;-46
2020/12/20 04:38:15;;;;;;;17.35;14.38;;;;;;;6.29;68.97;103117.27;1781922;80;21144;-46
2020/12/20 04:40:44;;;;;;;20.20;14.58;;;;;;;6.27;68.99;103120.22;1792670;80;21283;-47
2020/12/20 04:43:13;;;;;;;21.45;15.88;;;;;;;6.28;68.99;103119.41;1726556;83;21163;-46
2020/12/20 04:45:44;;;;;;;19.37;14.58;;;;;;;6.28;68.91;103125.88;1758774;81;21613;-46
2020/12/20 04:48:14;;;;;;;19.87;15.40;;;;;;;6.27;68.91;103129.27;1744702;81;21132;-46
2020/12/20 04:50:53;;;;;;;21.87;16.25;;;;;;;6.28;68.78;103129.75;1732170;81;21166;-47
2020/12/20 04:53:21;;;;;;;18.95;14.40;;;;;;;6.26;68.80;103128.82;1718229;81;21214;-47
2020/12/20 04:56:07;;;;;;;18.15;14.05;;;;;;;6.30;68.86;103133.27;1771700;79;22985;-46
2020/12/20 04:58:38;;;;;;;21.05;14.85;;;;;;;6.27;68.82;103140.91;1714707;83;21179;-46
2020/12/20 05:01:07;;;;;;;18.90;14.85;;;;;;;6.22;68.87;103142.44;1717498;83;21174;-46
2020/12/20 05:03:35;;;;;;;21.12;16.30;;;;;;;6.18;68.80;103148.33;1693353;83;21603;-46
2020/12/20 05:06:05;;;;;;;22.90;16.42;;;;;;;6.14;68.86;103146.47;1718288;83;21182;-47
2020/12/20 05:08:34;;;;;;;20.35;15.58;;;;;;;6.11;68.99;103148.97;1705518;83;21155;-48
2020/12/20 05:11:03;;;;;;;21.07;14.73;;;;;;;6.07;69.16;103144.52;1718162;83;21356;-47
2020/12/20 05:13:39;;;;;;;19.90;15.25;;;;;;;6.08;69.20;103148.00;1714309;83;21199;-48
2020/12/20 05:16:14;;;;;;;19.17;14.45;;;;;;;6.07;69.16;103150.09;1712171;83;21170;-47
2020/12/20 05:18:49;;;;;;;19.48;15.28;;;;;;;6.06;69.34;103147.92;1771369;79;23424;-46
2020/12/20 05:21:27;;;;;;;23.62;15.88;;;;;;;5.98;69.36;103151.06;1736306;82;21125;-46
2020/12/20 05:23:56;;;;;;;24.07;16.00;;;;;;;5.94;69.51;103148.79;1735388;82;21155;-46
2020/12/20 05:26:30;;;;;;;19.27;14.95;;;;;;;5.89;69.80;103155.52;1732024;82;21644;-46
2020/12/20 05:29:12;;;;;;;22.30;15.53;;;;;;;5.89;69.98;103151.64;1705811;82;21105;-46
2020/12/20 05:31:42;;;;;;;24.05;15.83;;;;;;;5.87;70.16;103153.30;1685256;84;21191;-46
2020/12/20 05:34:22;;;;;;;25.70;17.00;;;;;;;5.86;70.08;103157.98;1684932;84;21833;-47
2020/12/20 05:36:51;;;;;;;21.10;16.05;;;;;;;5.84;69.97;103155.75;1688749;84;21195;-47
2020/12/20 05:39:28;;;;;;;19.75;17.23;;;;;;;5.87;70.18;103155.87;1790410;79;28164;-46
2020/12/20 05:42:05;;;;;;;18.35;15.50;;;;;;;5.91;70.23;103160.33;1763307;80;21144;-46
2020/12/20 05:44:34;;;;;;;19.30;14.95;;;;;;;6.05;70.07;103162.09;1744627;80;21152;-48
2020/12/20 05:47:05;;;;;;;20.62;15.32;;;;;;;6.15;69.76;103170.62;1778362;80;21135;-47
2020/12/20 05:49:38;;;;;;;18.27;15.48;;;;;;;6.20;69.54;103171.23;1775780;80;21262;-48
2020/12/20 05:52:12;;;;;;;20.85;15.63;;;;;;;6.26;69.33;103177.95;1772044;80;21131;-45
2020/12/20 05:54:43;;;;;;;19.98;15.03;;;;;;;6.29;69.15;103178.44;1776730;80;21120;-45
2020/12/20 05:57:14;;;;;;;20.43;14.80;;;;;;;6.32;68.92;103177.27;1776420;80;21143;-46
2020/12/20 05:59:43;;;;;;;19.23;15.00;;;;;;;6.34;68.77;103186.84;1776754;80;21549;-45
2020/12/20 06:02:12;;;;;;;19.17;15.95;;;;;;;6.35;68.63;103188.58;1776787;80;21565;-46
2020/12/20 06:04:41;;;;;;;21.17;15.55;;;;;;;6.35;68.61;103193.75;1777627;80;21195;-46
2020/12/20 06:07:09;;;;;;;20.10;14.60;;;;;;;6.38;68.69;103196.86;1780312;80;21136;-46
2020/12/20 06:09:59;;;;;;;19.82;15.35;;;;;;;6.39;68.59;103198.20;1783736;80;21560;-47
2020/12/20 06:12:31;;;;;;;24.10;15.78;;;;;;;6.40;68.58;103192.22;1761359;80;21341;-46
2020/12/20 06:15:00;;;;;;;19.32;15.20;;;;;;;6.42;68.46;103199.61;1777874;80;21188;-46
2020/12/20 06:17:28;;;;;;;19.35;15.10;;;;;;;6.40;68.36;103211.61;1779386;80;21171;-46
2020/12/20 06:20:04;;;;;;;20.92;15.95;;;;;;;6.38;68.31;103204.62;1780063;80;21151;-47
2020/12/20 06:22:35;;;;;;;19.48;15.20;;;;;;;6.35;68.39;103206.68;1743163;82;21167;-47
2020/12/20 06:25:05;;;;;;;20.80;15.53;;;;;;;6.35;68.53;103204.50;1743392;82;21820;-46
2020/12/20 06:27:34;;;;;;;19.95;14.87;;;;;;;6.37;68.63;103210.20;1734427;82;21195;-47
2020/12/20 06:30:07;;;;;;;20.27;15.38;;;;;;;6.41;68.53;103206.89;1741362;82;21650;-47
2020/12/20 06:32:43;;;;;;;20.37;15.35;;;;;;;6.41;68.38;103212.06;1740544;82;21155;-46
2020/12/20 06:35:15;;;;;;;21.42;16.23;;;;;;;6.41;68.29;103211.17;1741031;80;21604;-47
2020/12/20 06:37:48;;;;;;;19.15;14.78;;;;;;;6.43;68.43;103207.81;1771492;79;23093;-46
2020/12/20 06:40:37;;;;;;;22.40;16.37;;;;;;;6.37;68.43;103215.37;1744510;82;21129;-46
2020/12/20 06:43:07;;;;;;;24.92;14.95;;;;;;;6.38;68.48;103214.97;1736072;82;21152;-47
2020/12/20 06:45:44;;;;;;;21.97;15.15;;;;;;;6.39;68.44;103220.59;1737622;82;21161;-47
2020/12/20 06:48:13;;;;;;;21.80;15.10;;;;;;;6.35;68.43;103219.61;1737974;81;21120;-47
2020/12/20 06:50:46;;;;;;;22.60;16.07;;;;;;;6.35;68.36;103223.89;1736925;82;21168;-47
2020/12/20 06:53:16;;;;;;;21.52;15.68;;;;;;;6.33;68.48;103223.85;1731416;82;21156;-48
2020/12/20 06:55:46;;;;;;;19.57;15.65;;;;;;;6.33;68.55;103221.27;1738969;82;21172;-47
2020/12/20 06:58:18;;;;;;;21.07;14.83;;;;;;;6.35;68.56;103224.78;1744124;81;21171;-47
2020/12/20 07:00:54;;;;;;;21.00;16.30;;;;;;;6.37;68.47;103224.42;1737584;82;21144;-47
2020/12/20 07:03:33;;;;;;;20.08;16.02;;;;;;;6.32;68.29;103222.11;1738464;82;21153;-47
2020/12/20 07:06:14;;;;;;;23.80;16.75;;;;;;;6.30;68.28;103218.59;1738236;82;21140;-48
2020/12/20 07:08:59;;;;;;;24.25;17.07;;;;;;;6.28;68.38;103220.24;1725124;82;21184;-47
2020/12/20 07:11:42;;;;;;;22.02;15.83;;;;;;;6.31;68.39;103222.92;1772362;79;22956;-47
2020/12/20 07:14:23;;;;;;;22.62;17.75;;;;;;;6.26;68.37;103228.36;1734474;82;21160;-46
2020/12/20 07:16:51;;;;;;;22.45;17.82;;;;;;;6.21;68.22;103225.12;1745595;82;21294;-46
2020/12/20 07:19:22;;;;;;;21.65;17.60;;;;;;;6.14;68.46;103226.61;1741110;82;21290;-47
2020/12/20 07:21:57;;;;;;;19.60;15.20;;;;;;;6.13;68.63;103226.16;1674035;84;21240;-47
2020/12/20 07:24:31;;;;;;;24.32;17.42;;;;;;;6.11;68.72;103219.16;1681847;84;21703;-47
2020/12/20 07:27:02;;;;;;;22.10;17.15;;;;;;;6.11;68.69;103215.28;1682487;84;21673;-46
2020/12/20 07:29:33;;;;;;;24.90;17.70;;;;;;;6.09;68.58;103216.94;1691179;84;21185;-46
2020/12/20 07:32:04;;;;;;;23.18;17.50;;;;;;;6.08;68.78;103218.64;1683308;84;21200;-47
2020/12/20 07:34:32;;;;;;;27.37;19.87;;;;;;;6.10;68.77;103225.18;1683564;84;21197;-47
2020/12/20 07:37:01;;;;;;;22.62;17.25;;;;;;;6.09;68.94;103225.98;1682481;84;21180;-46
2020/12/20 07:39:29;;;;;;;20.80;15.83;;;;;;;6.13;69.03;103223.57;1693981;84;21314;-47
2020/12/20 07:41:59;;;;;;;23.15;17.30;;;;;;;6.16;68.91;103224.95;1681503;84;21172;-46
2020/12/20 07:44:34;;;;;;;23.42;16.87;;;;;;;6.17;68.89;103228.43;1681715;84;21141;-46
2020/12/20 07:47:11;;;;;;;25.17;17.52;;;;;;;6.15;69.07;103233.55;1683793;84;21397;-47
2020/12/20 07:49:40;;;;;;;23.90;17.32;;;;;;;6.16;68.95;103232.71;1690973;84;21233;-48
2020/12/20 07:52:09;;;;;;;24.98;17.15;;;;;;;6.16;69.00;103230.13;1682935;84;21189;-47
2020/12/20 07:54:37;;;;;;;22.77;16.10;;;;;;;6.19;69.24;103232.84;1686260;84;21153;-46
2020/12/20 07:57:06;;;;;;;26.73;18.85;;;;;;;6.25;69.20;103235.63;1686993;84;21291;-45
2020/12/20 07:59:35;;;;;;;22.20;15.53;;;;;;;6.31;68.93;103239.72;1686921;84;21613;-46
2020/12/20 08:02:03;;;;;;;26.73;16.50;;;;;;;6.35;68.75;103239.41;1685484;84;21164;-46
2020/12/20 08:04:31;;;;;;;24.60;17.70;;;;;;;6.37;68.68;103245.52;1683945;84;21165;-46
2020/12/20 08:06:59;;;;;;;23.52;16.70;;;;;;;6.37;68.41;103244.22;1682159;84;21315;-46
2020/12/20 08:09:28;;;;;;;21.50;15.80;;;;;;;6.37;68.40;103246.41;1683492;84;21374;-46
2020/12/20 08:11:57;;;;;;;22.00;17.77;;;;;;;6.37;68.17;103246.41;1674655;85;21696;-46
2020/12/20 08:14:25;;;;;;;21.50;16.20;;;;;;;6.35;68.26;103240.30;1681722;85;21168;-46
2020/12/20 08:16:54;;;;;;;23.15;15.83;;;;;;;6.40;68.13;103243.94;1677786;85;21598;-46
2020/12/20 08:19:28;;;;;;;27.73;17.02;;;;;;;6.42;68.00;103244.88;1727269;82;21314;-47
2020/12/20 08:22:06;;;;;;;25.08;17.02;;;;;;;6.42;67.97;103242.28;1722530;81;21196;-46
2020/12/20 08:24:42;;;;;;;24.67;16.25;;;;;;;6.46;68.06;103244.55;1690753;84;21365;-47
2020/12/20 08:27:20;;;;;;;21.55;15.88;;;;;;;6.48;68.04;103243.78;1721101;81;21207;-47
2020/12/20 08:29:52;;;;;;;21.42;16.20;;;;;;;6.52;68.13;103240.88;1691773;84;21226;-47
2020/12/20 08:32:23;;;;;;;19.60;16.20;;;;;;;6.59;68.07;103240.27;1708236;82;21168;-47
2020/12/20 08:34:51;;;;;;;22.75;16.77;;;;;;;6.65;67.93;103237.00;1708938;83;21196;-46
2020/12/20 08:37:23;;;;;;;22.62;17.20;;;;;;;6.71;67.87;103230.73;1697711;82;21629;-47
2020/12/20 08:39:51;;;;;;;20.20;15.45;;;;;;;6.75;67.81;103236.48;1704319;82;21306;-47
2020/12/20 08:42:20;;;;;;;22.75;16.23;;;;;;;6.81;67.73;103235.38;1710316;82;21153;-46
2020/12/20 08:44:51;;;;;;;22.07;16.32;;;;;;;6.84;67.49;103231.62;1708885;82;21374;-46
2020/12/20 08:47:20;;;;;;;21.40;17.00;;;;;;;6.82;67.41;103238.45;1691486;84;21156;-46
2020/12/20 08:49:57;;;;;;;22.37;16.87;;;;;;;6.79;67.29;103234.05;1708221;83;21304;-47
2020/12/20 08:52:30;;;;;;;24.43;18.15;;;;;;;6.76;67.46;103235.67;1709962;82;21172;-47
2020/12/20 08:55:00;;;;;;;23.38;16.60;;;;;;;6.76;67.64;103235.67;1726524;81;21172;-46
2020/12/20 08:57:30;;;;;;;23.50;16.65;;;;;;;6.78;67.60;103234.01;1684802;84;21167;-46
2020/12/20 09:00:14;;;;;;;19.92;15.75;;;;;;;6.79;67.63;103234.05;1707144;82;21172;-46
2020/12/20 09:02:43;;;;;;;20.48;14.90;;;;;;;6.83;67.52;103235.91;1685189;84;21127;-47
2020/12/20 09:05:15;;;;;;;23.12;16.25;;;;;;;6.84;67.28;103236.80;1696877;83;21612;-47
2020/12/20 09:07:45;;;;;;;21.62;16.35;;;;;;;6.84;67.25;103231.62;1684036;84;21227;-47
2020/12/20 09:10:30;;;;;;;21.30;14.35;;;;;;;6.86;67.23;103224.78;1712049;82;21250;-47
2020/12/20 09:13:07;;;;;;;20.80;15.75;;;;;;;6.91;67.04;103229.27;1806508;77;23573;-46
2020/12/20 09:15:37;;;;;;;21.00;15.25;;;;;;;6.86;67.05;103232.55;1820203;78;21140;-47
2020/12/20 09:18:19;;;;;;;20.27;14.33;;;;;;;6.80;67.21;103227.17;1745663;81;21608;-46
2020/12/20 09:20:48;;;;;;;21.50;15.15;;;;;;;6.78;67.15;103221.06;1706982;83;21682;-46
2020/12/20 09:23:23;;;;;;;17.95;13.65;;;;;;;6.76;67.24;103222.73;1706766;83;21177;-46
2020/12/20 09:26:00;;;;;;;19.05;14.35;;;;;;;6.75;67.15;103215.78;1727726;82;21171;-47
2020/12/20 09:28:30;;;;;;;18.00;13.32;;;;;;;6.73;66.97;103217.44;1721539;82;21178;-47
2020/12/20 09:30:58;;;;;;;15.98;12.13;;;;;;;6.70;66.84;103216.06;1725037;82;21195;-46
2020/12/20 09:33:36;;;;;;;18.55;11.97;;;;;;;6.66;66.93;103218.94;1716900;82;21377;-46
2020/12/20 09:36:11;;;;;;;18.37;13.45;;;;;;;6.64;66.81;103222.30;1708941;83;21163;-46
2020/12/20 09:38:54;;;;;;;15.93;11.80;;;;;;;6.64;66.98;103218.41;1705664;83;21148;-46
2020/12/20 09:41:29;;;;;;;15.68;11.93;;;;;;;6.71;66.88;103215.22;1771635;79;22914;-46
2020/12/20 09:43:59;;;;;;;14.73;11.78;;;;;;;6.71;66.98;103216.51;1738753;82;21601;-45
2020/12/20 09:46:29;;;;;;;14.93;11.22;;;;;;;6.77;66.75;103221.88;1743843;82;21172;-46
2020/12/20 09:48:59;;;;;;;13.50;10.70;;;;;;;6.77;66.58;103219.30;1738264;82;21559;-46
2020/12/20 09:51:27;;;;;;;16.52;11.97;;;;;;;6.76;66.36;103217.55;1734903;82;21306;-47
2020/12/20 09:53:55;;;;;;;16.70;10.70;;;;;;;6.72;66.33;103214.40;1739197;82;21644;-46
2020/12/20 09:56:23;;;;;;;15.60;11.30;;;;;;;6.73;66.70;103214.84;1741253;82;21141;-47
2020/12/20 09:58:52;;;;;;;17.73;10.80;;;;;;;6.75;66.71;103213.19;1741258;82;21290;-46
2020/12/20 10:01:25;;;;;;;12.90;9.60;;;;;;;6.75;66.57;103210.60;1736994;82;21161;-47
2020/12/20 10:03:53;;;;;;;13.13;9.90;;;;;;;6.75;66.48;103206.31;1727906;82;21169;-47
2020/12/20 10:06:21;;;;;;;14.10;10.85;;;;;;;6.76;66.25;103207.20;1741266;82;21168;-46
2020/12/20 10:08:49;;;;;;;13.93;10.78;;;;;;;6.77;66.24;103205.06;1741075;82;21135;-47
2020/12/20 10:11:18;;;;;;;12.03;9.85;;;;;;;6.77;66.19;103205.06;1726723;82;21573;-46
2020/12/20 10:13:47;;;;;;;14.45;10.98;;;;;;;6.76;66.34;103204.62;1738229;82;21181;-46
2020/12/20 10:16:18;;;;;;;14.93;11.15;;;;;;;6.78;66.54;103205.55;1743926;82;21573;-48
2020/12/20 10:18:46;;;;;;;10.90;8.98;;;;;;;6.81;66.29;103201.34;1740383;82;21149;-47
2020/12/20 10:21:15;;;;;;;12.78;9.58;;;;;;;6.81;66.04;103196.57;1728012;82;21152;-47
2020/12/20 10:23:45;;;;;;;13.03;9.03;;;;;;;6.82;65.79;103198.34;1736656;82;21153;-46
2020/12/20 10:26:13;;;;;;;10.98;8.48;;;;;;;6.84;65.87;103200.56;1741146;82;21184;-47
2020/12/20 10:28:41;;;;;;;11.08;8.48;;;;;;;6.88;65.68;103197.24;1739706;82;21187;-46
2020/12/20 10:31:10;;;;;;;11.20;8.48;;;;;;;6.90;65.30;103191.70;1737739;82;21311;-46
2020/12/20 10:33:38;;;;;;;9.78;8.00;;;;;;;6.92;65.30;103193.92;1738640;82;21291;-46
2020/12/20 10:36:06;;;;;;;11.63;8.58;;;;;;;6.96;64.98;103192.78;1700822;82;21330;-46
2020/12/20 10:38:34;;;;;;;11.48;8.40;;;;;;;7.00;65.22;103187.27;1744584;82;21117;-46
2020/12/20 10:41:03;;;;;;;11.83;9.55;;;;;;;7.04;65.18;103186.13;1738474;82;21160;-46
2020/12/20 10:43:31;;;;;;;10.50;9.03;;;;;;;7.08;65.11;103188.39;1734461;81;21324;-47
2020/12/20 10:45:59;;;;;;;12.03;8.65;;;;;;;7.09;65.01;103179.80;1732890;82;21310;-46
2020/12/20 10:48:27;;;;;;;11.83;9.25;;;;;;;7.12;64.82;103180.77;1732557;81;21109;-46
2020/12/20 10:50:55;;;;;;;12.20;9.10;;;;;;;7.18;64.74;103177.48;1724163;83;21125;-47
2020/12/20 10:53:24;;;;;;;13.50;9.70;;;;;;;7.17;64.59;103175.73;1731975;82;21133;-46
2020/12/20 10:55:52;;;;;;;10.78;8.90;;;;;;;7.17;64.54;103176.59;1738662;82;21298;-46
2020/12/20 10:58:20;;;;;;;11.90;8.83;;;;;;;7.18;64.15;103177.48;1738352;81;21201;-46
2020/12/20 11:00:48;;;;;;;12.60;9.38;;;;;;;7.17;63.86;103179.63;1738784;82;21291;-46
2020/12/20 11:03:17;;;;;;;11.63;9.28;;;;;;;7.16;63.65;103179.14;1739911;82;21209;-47
2020/12/20 11:05:46;;;;;;;11.30;9.63;;;;;;;7.16;63.63;103176.55;1740705;82;21569;-47
2020/12/20 11:08:14;;;;;;;13.75;9.55;;;;;;;7.23;63.46;103179.80;1741502;82;21537;-47
2020/12/20 11:10:43;;;;;;;16.10;11.10;;;;;;;7.31;63.32;103182.20;1741303;82;21157;-48
2020/12/20 11:13:11;;;;;;;11.35;9.20;;;;;;;7.23;63.14;103179.80;1739447;82;21152;-47
2020/12/20 11:15:42;;;;;;;11.22;8.93;;;;;;;7.24;62.72;103187.61;1738468;81;21565;-47
2020/12/20 11:18:10;;;;;;;12.28;9.80;;;;;;;7.22;62.69;103185.80;1737936;82;21152;-47
2020/12/20 11:20:38;;;;;;;12.58;9.78;;;;;;;7.23;62.58;103183.69;1738398;82;21168;-47
2020/12/20 11:23:06;;;;;;;12.03;9.45;;;;;;;7.34;62.35;103186.17;1731876;81;21616;-48
2020/12/20 11:25:37;;;;;;;17.70;12.13;;;;;;;7.34;62.49;103183.58;1741415;82;21156;-47
2020/12/20 11:28:05;;;;;;;14.20;10.88;;;;;;;7.26;62.85;103178.59;1741375;82;21148;-47
2020/12/20 11:30:33;;;;;;;13.88;10.90;;;;;;;7.23;63.14;103184.98;1729709;82;21148;-47
2020/12/20 11:33:01;;;;;;;14.10;11.63;;;;;;;7.24;63.18;103178.55;1739226;82;21152;-47
2020/12/20 11:35:31;;;;;;;14.80;11.68;;;;;;;7.25;63.23;103179.44;1734644;82;21290;-47